createdAt,value
2023-07-03T00:00:17.005Z,12.63
2023-07-03T00:02:44.474Z,12.23
2023-07-03T00:05:12.285Z,10.07
2023-07-03T00:07:40.569Z,12.10
2023-07-03T00:10:08.237Z,11.25
2023-07-03T00:12:35.900Z,13.45
2023-07-03T00:15:03.384Z,7.32
2023-07-03T00:17:30.572Z,8.18
2023-07-03T00:19:57.945Z,10.85
2023-07-03T00:22:25.742Z,12.45
2023-07-03T00:24:52.895Z,10.68
2023-07-03T00:27:20.067Z,12.93
2023-07-03T00:29:47.383Z,8.55
2023-07-03T00:32:14.593Z,15.52
2023-07-03T00:34:41.911Z,12.35
2023-07-03T00:37:09.226Z,12.52
2023-07-03T00:39:36.458Z,11.98
2023-07-03T00:42:04.084Z,13.60
2023-07-03T00:44:31.473Z,16.00
2023-07-03T00:46:58.741Z,15.30
2023-07-03T00:49:26.210Z,9.90
2023-07-03T00:51:57.745Z,13.68
2023-07-03T00:54:25.000Z,10.18
2023-07-03T00:56:52.518Z,8.68
2023-07-03T00:59:19.981Z,16.50
2023-07-03T01:02:02.094Z,12.68
2023-07-03T01:04:31.598Z,15.63
2023-07-03T01:07:02.612Z,10.90
2023-07-03T01:09:34.499Z,12.43
2023-07-03T01:12:02.284Z,15.10
2023-07-03T01:14:30.496Z,9.80
2023-07-03T01:16:59.401Z,14.75
2023-07-03T01:22:00.487Z,11.52
2023-07-03T01:24:36.253Z,12.40
2023-07-03T01:27:04.955Z,10.02
2023-07-03T01:29:32.882Z,15.07
2023-07-03T01:32:00.487Z,14.35
2023-07-03T01:34:29.222Z,14.23
2023-07-03T01:36:58.203Z,16.73
2023-07-03T01:39:26.096Z,14.55
2023-07-03T01:41:53.574Z,12.68
2023-07-03T01:44:20.729Z,11.98
2023-07-03T01:46:47.957Z,13.05
2023-07-03T01:49:15.946Z,14.20
2023-07-03T01:51:50.129Z,15.82
2023-07-03T01:54:27.197Z,14.82
2023-07-03T01:56:55.679Z,15.18
2023-07-03T01:59:30.289Z,16.75
2023-07-03T02:02:00.930Z,16.40
2023-07-03T02:04:37.658Z,14.73
2023-07-03T02:07:05.503Z,11.90
2023-07-03T02:09:32.937Z,14.23
2023-07-03T02:12:00.307Z,15.18
2023-07-03T02:14:27.574Z,18.80
2023-07-03T02:16:54.859Z,18.35
2023-07-03T02:19:29.356Z,14.25
2023-07-03T02:21:59.941Z,15.55
2023-07-03T02:24:27.611Z,16.15
2023-07-03T02:26:56.869Z,18.17
2023-07-03T02:29:24.208Z,21.92
2023-07-03T02:31:52.854Z,13.38
2023-07-03T02:34:22.104Z,14.05
2023-07-03T02:36:49.555Z,15.25
2023-07-03T02:39:16.990Z,17.00
2023-07-03T02:41:44.206Z,16.13
2023-07-03T02:44:11.512Z,9.63
2023-07-03T02:46:38.763Z,15.80
2023-07-03T02:49:06.051Z,14.38
2023-07-03T02:51:33.319Z,19.20
2023-07-03T02:54:00.518Z,13.23
2023-07-03T02:56:27.681Z,12.60
2023-07-03T02:58:54.826Z,14.10
2023-07-03T03:01:22.841Z,17.10
2023-07-03T03:03:50.397Z,15.65
2023-07-03T03:06:17.849Z,15.60
2023-07-03T03:08:46.993Z,15.25
2023-07-03T03:11:15.022Z,16.13
2023-07-03T03:13:42.719Z,11.00
2023-07-03T03:16:09.948Z,11.82
2023-07-03T03:18:37.204Z,15.40
2023-07-03T03:21:04.541Z,12.05
2023-07-03T03:23:31.725Z,18.92
2023-07-03T03:25:59.053Z,14.00
2023-07-03T03:28:26.314Z,17.13
2023-07-03T03:30:53.562Z,14.63
2023-07-03T03:33:21.278Z,11.88
2023-07-03T03:35:48.981Z,12.73
2023-07-03T03:38:16.426Z,15.15
2023-07-03T03:40:54.576Z,19.58
2023-07-03T03:43:21.928Z,15.48
2023-07-03T03:45:58.507Z,17.83
2023-07-03T03:48:26.507Z,17.50
2023-07-03T03:50:54.325Z,11.50
2023-07-03T03:53:21.657Z,13.90
2023-07-03T03:55:52.726Z,14.82
2023-07-03T03:58:21.193Z,14.98
2023-07-03T04:00:48.701Z,12.55
2023-07-03T04:03:15.895Z,13.68
2023-07-03T04:05:43.083Z,16.25
2023-07-03T04:08:10.897Z,16.27
2023-07-03T04:10:38.204Z,14.88
2023-07-03T04:13:05.611Z,16.50
2023-07-03T04:15:34.676Z,14.00
2023-07-03T04:18:02.138Z,11.63
2023-07-03T04:20:29.520Z,13.45
2023-07-03T04:22:56.814Z,13.00
2023-07-03T04:25:24.244Z,16.73
2023-07-03T04:27:52.300Z,12.13
2023-07-03T04:30:19.598Z,11.95
2023-07-03T04:32:54.870Z,12.93
2023-07-03T04:35:24.928Z,12.73
2023-07-03T04:37:52.399Z,13.95
2023-07-03T04:40:19.649Z,13.15
2023-07-03T04:42:46.878Z,10.68
2023-07-03T04:45:16.842Z,13.88
2023-07-03T04:47:44.101Z,12.65
2023-07-03T04:50:12.820Z,18.33
2023-07-03T04:52:40.256Z,13.85
2023-07-03T04:55:10.309Z,14.57
2023-07-03T04:57:40.466Z,18.05
2023-07-03T05:00:15.646Z,17.50
2023-07-03T05:02:43.551Z,14.35
2023-07-03T05:05:14.013Z,15.68
2023-07-03T05:07:42.119Z,13.95
2023-07-03T05:10:10.296Z,13.43
2023-07-03T05:12:38.087Z,14.13
2023-07-03T05:15:08.312Z,15.40
2023-07-03T05:17:36.329Z,15.32
2023-07-03T05:20:07.143Z,15.20
2023-07-03T05:22:34.413Z,11.68
2023-07-03T05:25:02.220Z,11.45
2023-07-03T05:27:29.527Z,13.80
2023-07-03T05:29:58.947Z,11.95
2023-07-03T05:32:26.666Z,11.13
2023-07-03T05:34:53.886Z,10.82
2023-07-03T05:37:22.189Z,12.45
2023-07-03T05:39:50.336Z,16.70
2023-07-03T05:42:18.305Z,10.13
2023-07-03T05:44:46.066Z,12.85
2023-07-03T05:47:14.702Z,16.17
2023-07-03T05:49:42.290Z,12.90
2023-07-03T05:52:10.962Z,12.80
2023-07-03T05:57:06.796Z,11.35
2023-07-03T05:59:34.422Z,10.55
2023-07-03T06:02:01.735Z,14.30
2023-07-03T06:04:29.093Z,14.57
2023-07-03T06:06:59.953Z,17.48
2023-07-03T06:09:28.377Z,14.70
2023-07-03T06:11:56.811Z,11.85
2023-07-03T06:14:24.730Z,13.18
2023-07-03T06:16:52.667Z,12.07
2023-07-03T06:19:20.848Z,13.20
2023-07-03T06:21:48.704Z,10.75
2023-07-03T06:24:16.639Z,11.07
2023-07-03T06:26:44.369Z,11.00
2023-07-03T06:29:14.463Z,10.82
2023-07-03T06:31:42.423Z,13.38
2023-07-03T06:34:09.738Z,13.70
2023-07-03T06:36:37.170Z,13.52
2023-07-03T06:39:06.054Z,10.43
2023-07-03T06:41:35.601Z,13.82
2023-07-03T06:44:03.687Z,14.00
2023-07-03T06:46:31.034Z,9.20
2023-07-03T06:48:58.494Z,13.18
2023-07-03T06:51:26.031Z,10.50
2023-07-03T06:53:53.445Z,10.70
2023-07-03T06:56:24.186Z,13.40
2023-07-03T06:58:52.093Z,10.52
2023-07-03T07:01:21.057Z,11.95
2023-07-03T07:03:48.502Z,10.90
2023-07-03T07:06:20.150Z,14.25
2023-07-03T07:08:47.429Z,11.82
2023-07-03T07:11:15.854Z,15.65
2023-07-03T07:13:44.994Z,17.45
2023-07-03T07:16:13.399Z,12.52
2023-07-03T07:18:41.112Z,12.30
2023-07-03T07:21:08.702Z,12.35
2023-07-03T07:23:36.194Z,10.93
2023-07-03T07:26:03.358Z,11.40
2023-07-03T07:28:30.640Z,11.82
2023-07-03T07:30:58.168Z,8.15
2023-07-03T07:33:25.636Z,8.88
2023-07-03T07:35:53.810Z,12.35
2023-07-03T07:38:23.156Z,10.82
2023-07-03T07:40:51.441Z,10.07
2023-07-03T07:43:18.661Z,13.57
2023-07-03T07:45:53.834Z,8.13
2023-07-03T07:48:21.471Z,6.60
2023-07-03T07:50:48.814Z,8.80
2023-07-03T07:53:16.323Z,12.30
2023-07-03T07:55:43.574Z,8.40
2023-07-03T07:58:10.839Z,14.25
2023-07-03T08:00:38.098Z,9.05
2023-07-03T08:03:09.359Z,12.25
2023-07-03T08:05:38.489Z,12.23
2023-07-03T08:10:33.390Z,9.57
2023-07-03T08:13:00.872Z,15.68
2023-07-03T08:15:28.185Z,12.32
2023-07-03T08:17:55.372Z,12.75
2023-07-03T08:20:23.925Z,9.45
2023-07-03T08:22:52.218Z,8.60
2023-07-03T08:25:19.696Z,13.80
2023-07-03T08:27:47.932Z,10.77
2023-07-03T08:30:15.652Z,12.18
2023-07-03T08:32:44.650Z,8.25
2023-07-03T08:37:42.321Z,13.05
2023-07-03T08:40:10.246Z,5.68
2023-07-03T08:42:42.289Z,10.70
2023-07-03T08:45:11.918Z,10.93
2023-07-03T08:47:40.291Z,9.93
2023-07-03T08:50:10.142Z,11.43
2023-07-03T08:52:43.555Z,10.60
2023-07-03T08:55:14.779Z,7.20
2023-07-03T08:57:42.148Z,10.10
2023-07-03T09:00:12.965Z,9.10
2023-07-03T09:02:46.517Z,8.98
2023-07-03T09:05:14.290Z,10.10
2023-07-03T09:07:44.715Z,11.80
2023-07-03T09:10:18.420Z,8.55
2023-07-03T09:12:50.393Z,13.88
2023-07-03T09:15:25.135Z,6.97
2023-07-03T09:17:53.923Z,12.20
2023-07-03T09:22:51.290Z,11.00
2023-07-03T09:25:40.034Z,10.73
2023-07-03T09:28:08.869Z,10.48
2023-07-03T09:30:36.495Z,14.45
2023-07-03T09:33:03.913Z,7.88
2023-07-03T09:35:36.286Z,9.02
2023-07-03T09:38:06.229Z,9.18
2023-07-03T09:40:35.150Z,12.10
2023-07-03T09:43:02.781Z,11.88
2023-07-03T09:45:36.307Z,14.40
2023-07-03T09:48:04.903Z,8.85
2023-07-03T09:50:34.026Z,9.90
2023-07-03T09:53:08.481Z,9.88
2023-07-03T09:55:37.104Z,8.32
2023-07-03T09:58:12.041Z,9.45
2023-07-03T10:00:46.196Z,9.50
2023-07-03T10:08:21.682Z,11.88
2023-07-03T10:13:25.569Z,13.82
2023-07-03T10:15:53.193Z,12.38
2023-07-03T10:18:40.752Z,9.45
2023-07-03T10:21:10.830Z,10.15
2023-07-03T10:23:39.253Z,11.68
2023-07-03T10:26:06.452Z,7.18
2023-07-03T10:28:35.738Z,14.23
2023-07-03T10:31:07.167Z,8.43
2023-07-03T10:33:37.201Z,11.70
2023-07-03T10:36:05.846Z,7.22
2023-07-03T10:38:43.123Z,7.50
2023-07-03T10:41:29.167Z,8.88
2023-07-03T10:44:07.569Z,7.47
2023-07-03T10:46:39.770Z,12.02
2023-07-03T10:49:10.403Z,6.30
2023-07-03T10:51:38.503Z,6.35
2023-07-03T10:54:18.626Z,7.55
2023-07-03T10:56:47.156Z,9.85
2023-07-03T10:59:34.165Z,8.20
2023-07-03T11:02:10.587Z,7.95
2023-07-03T11:04:48.652Z,6.70
2023-07-03T11:07:24.488Z,6.80
2023-07-03T11:09:51.703Z,6.65
2023-07-03T11:12:21.986Z,5.43
2023-07-03T11:14:57.888Z,8.27
2023-07-03T11:17:33.411Z,8.65
2023-07-03T11:20:12.143Z,8.07
2023-07-03T11:25:12.060Z,5.43
2023-07-03T11:27:58.176Z,8.43
2023-07-03T11:30:27.046Z,10.10
2023-07-03T11:32:56.048Z,7.00
2023-07-03T11:40:39.188Z,3.47
2023-07-03T11:45:59.015Z,7.45
2023-07-03T11:48:30.381Z,7.10
2023-07-03T11:51:01.803Z,6.43
2023-07-03T11:53:49.292Z,6.32
2023-07-03T11:56:37.121Z,7.68
2023-07-03T11:59:09.123Z,8.77
2023-07-03T12:01:37.809Z,11.30
2023-07-03T12:06:42.137Z,6.68
2023-07-03T12:09:27.982Z,5.95
2023-07-03T12:12:01.239Z,7.15
2023-07-03T12:14:45.850Z,5.97
2023-07-03T12:17:33.107Z,7.43
2023-07-03T12:22:28.981Z,8.43
2023-07-03T12:25:06.936Z,5.07
2023-07-03T12:27:34.838Z,8.65
2023-07-03T12:30:02.422Z,8.90
2023-07-03T12:32:33.421Z,6.20
2023-07-03T12:35:15.577Z,4.90
2023-07-03T12:37:43.958Z,4.88
2023-07-03T12:40:16.372Z,6.57
2023-07-03T12:42:46.405Z,6.10
2023-07-03T12:45:22.613Z,4.28
2023-07-03T12:48:06.384Z,7.32
2023-07-03T12:50:34.133Z,7.22
2023-07-03T12:53:02.329Z,5.88
2023-07-03T12:55:32.767Z,5.38
2023-07-03T12:58:00.559Z,5.13
2023-07-03T13:00:32.713Z,7.60
2023-07-03T13:03:03.909Z,4.78
2023-07-03T13:05:37.075Z,5.00
2023-07-03T13:08:07.464Z,3.80
2023-07-03T13:10:34.944Z,4.72
2023-07-03T13:13:05.383Z,5.43
2023-07-03T13:15:34.830Z,5.78
2023-07-03T13:18:08.005Z,4.15
2023-07-03T13:20:36.129Z,5.40
2023-07-03T13:23:06.964Z,3.97
2023-07-03T13:25:36.224Z,5.68
2023-07-03T13:28:04.874Z,3.95
2023-07-03T13:30:35.836Z,4.80
2023-07-03T13:33:05.893Z,5.32
2023-07-03T13:35:33.110Z,5.70
2023-07-03T13:38:32.974Z,5.55
2023-07-03T13:41:00.990Z,5.03
2023-07-03T13:43:30.000Z,5.78
2023-07-03T13:45:57.656Z,4.03
2023-07-03T13:48:26.044Z,6.28
2023-07-03T13:50:54.450Z,5.07
2023-07-03T13:53:22.390Z,3.80
2023-07-03T13:55:50.344Z,5.10
2023-07-03T13:58:17.881Z,4.70
2023-07-03T14:00:45.127Z,5.72
2023-07-03T14:03:14.882Z,7.28
2023-07-03T14:05:42.347Z,7.22
2023-07-03T14:08:09.655Z,3.22
2023-07-03T14:10:36.874Z,6.53
2023-07-03T14:13:06.731Z,4.90
2023-07-03T14:15:36.337Z,5.78
2023-07-03T14:18:03.702Z,7.85
2023-07-03T14:20:33.394Z,5.00
2023-07-03T14:23:00.766Z,4.68
2023-07-03T14:25:29.141Z,4.07
2023-07-03T14:27:56.463Z,7.22
2023-07-03T14:30:23.647Z,7.35
2023-07-03T14:32:56.128Z,6.60
2023-07-03T14:35:24.113Z,5.80
2023-07-03T14:37:51.394Z,5.75
2023-07-03T14:40:18.706Z,6.00
2023-07-03T14:42:46.242Z,7.50
2023-07-03T14:45:15.679Z,4.35
2023-07-03T14:47:43.260Z,19.40
2023-07-03T14:50:11.610Z,6.60
2023-07-03T14:52:40.013Z,6.05
2023-07-03T14:55:07.916Z,5.53
2023-07-03T14:57:37.254Z,8.88
2023-07-03T15:00:05.644Z,8.25
2023-07-03T15:02:33.192Z,7.15
2023-07-03T15:05:00.466Z,8.00
2023-07-03T15:07:31.304Z,6.57
2023-07-03T15:10:01.425Z,6.45
2023-07-03T15:12:31.263Z,7.00
2023-07-03T15:14:59.221Z,7.45
2023-07-03T15:17:26.609Z,11.38
2023-07-03T15:19:57.005Z,7.65
2023-07-03T15:22:24.254Z,8.32
2023-07-03T15:24:51.452Z,8.68
2023-07-03T15:27:18.653Z,8.10
2023-07-03T15:29:47.764Z,9.65
2023-07-03T15:32:15.022Z,10.32
2023-07-03T15:34:42.212Z,6.97
2023-07-03T15:37:09.392Z,9.48
2023-07-03T15:39:37.236Z,7.47
2023-07-03T15:42:04.602Z,12.60
2023-07-03T15:44:31.774Z,8.95
2023-07-03T15:47:00.111Z,10.00
2023-07-03T15:49:28.884Z,8.60
2023-07-03T15:51:58.640Z,10.27
2023-07-03T15:54:26.177Z,8.30
2023-07-03T15:56:54.609Z,8.25
2023-07-03T15:59:21.855Z,8.65
2023-07-03T16:01:50.688Z,9.27
2023-07-03T16:06:49.417Z,6.55
2023-07-03T16:09:16.677Z,5.85
2023-07-03T16:11:44.257Z,10.82
2023-07-03T16:14:11.881Z,7.20
2023-07-03T16:16:44.527Z,7.03
2023-07-03T16:19:11.921Z,7.20
2023-07-03T16:21:39.094Z,5.63
2023-07-03T16:24:08.383Z,15.93
2023-07-03T16:26:36.090Z,7.28
2023-07-03T16:29:08.345Z,7.90
2023-07-03T16:31:35.783Z,9.13
2023-07-03T16:34:03.895Z,7.38
2023-07-03T16:36:31.914Z,9.50
2023-07-03T16:39:00.653Z,12.98
2023-07-03T16:46:22.807Z,12.93
2023-07-03T16:48:51.081Z,10.00
2023-07-03T16:51:18.775Z,10.30
2023-07-03T16:53:46.310Z,6.07
2023-07-03T16:56:14.794Z,10.48
2023-07-03T16:58:43.240Z,10.30
2023-07-03T17:01:11.706Z,8.68
2023-07-03T17:03:39.402Z,9.02
2023-07-03T17:06:12.481Z,8.23
2023-07-03T17:08:39.707Z,5.88
2023-07-03T17:11:07.167Z,10.18
2023-07-03T17:13:34.479Z,8.98
2023-07-03T17:16:01.765Z,9.70
2023-07-03T17:18:29.038Z,8.05
2023-07-03T17:20:56.291Z,12.98
2023-07-03T17:23:23.666Z,5.57
2023-07-03T17:25:51.037Z,7.32
2023-07-03T17:28:18.494Z,7.63
2023-07-03T17:30:45.653Z,7.00
2023-07-03T17:33:12.928Z,9.55
2023-07-03T17:35:40.712Z,10.35
2023-07-03T17:38:09.826Z,7.72
2023-07-03T17:40:40.399Z,7.85
2023-07-03T17:43:07.611Z,9.60
2023-07-03T17:45:35.699Z,8.50
2023-07-03T17:48:03.428Z,12.38
2023-07-03T17:50:30.764Z,8.10
2023-07-03T17:52:58.007Z,9.45
2023-07-03T17:55:26.461Z,8.75
2023-07-03T17:57:55.244Z,5.60
2023-07-03T18:00:22.877Z,7.13
2023-07-03T18:02:50.344Z,9.23
2023-07-03T18:05:17.694Z,7.13
2023-07-03T18:07:45.118Z,6.00
2023-07-03T18:10:12.723Z,6.85
2023-07-03T18:12:41.151Z,9.32
2023-07-03T18:15:08.784Z,7.65
2023-07-03T18:17:36.023Z,10.85
2023-07-03T18:20:05.078Z,6.85
2023-07-03T18:22:33.707Z,7.25
2023-07-03T18:25:02.939Z,8.02
2023-07-03T18:27:30.384Z,9.23
2023-07-03T18:29:57.692Z,5.00
2023-07-03T18:32:25.009Z,10.48
2023-07-03T18:34:52.437Z,10.30
2023-07-03T18:37:19.893Z,8.00
2023-07-03T18:39:47.241Z,7.18
2023-07-03T18:42:14.610Z,4.88
2023-07-03T18:44:44.140Z,8.82
2023-07-03T18:47:13.567Z,11.10
2023-07-03T18:49:41.435Z,8.90
2023-07-03T18:52:08.862Z,7.57
2023-07-03T18:54:36.106Z,8.98
2023-07-03T18:57:03.769Z,4.82
2023-07-03T18:59:31.445Z,6.15
2023-07-03T19:01:59.311Z,5.28
2023-07-03T19:04:26.650Z,7.60
2023-07-03T19:06:54.118Z,10.07
2023-07-03T19:09:21.398Z,8.70
2023-07-03T19:11:48.721Z,7.95
2023-07-03T19:14:16.096Z,6.95
2023-07-03T19:16:43.452Z,9.43
2023-07-03T19:19:10.974Z,7.00
2023-07-03T19:21:38.367Z,8.02
2023-07-03T19:24:05.717Z,8.70
2023-07-03T19:26:33.017Z,9.30
2023-07-03T19:29:00.381Z,6.45
2023-07-03T19:31:27.889Z,5.70
2023-07-03T19:33:56.470Z,8.80
2023-07-03T19:36:23.782Z,8.38
2023-07-03T19:38:51.065Z,11.20
2023-07-03T19:41:18.403Z,6.38
2023-07-03T19:43:45.743Z,5.95
2023-07-03T19:46:12.994Z,10.00
2023-07-03T19:48:40.476Z,11.63
2023-07-03T19:51:08.104Z,10.05
2023-07-03T19:53:36.522Z,9.77
2023-07-03T19:56:03.821Z,8.27
2023-07-03T19:58:31.588Z,9.32
2023-07-03T20:01:02.797Z,13.45
2023-07-03T20:03:32.411Z,9.15
2023-07-03T20:05:59.808Z,7.85
2023-07-03T20:08:27.227Z,7.50
2023-07-03T20:11:03.854Z,7.10
2023-07-03T20:13:31.108Z,9.20
2023-07-03T20:16:02.132Z,11.05
2023-07-03T20:18:29.310Z,12.38
2023-07-03T20:20:56.538Z,7.68
2023-07-03T20:23:24.863Z,8.35
2023-07-03T20:25:55.905Z,12.98
2023-07-03T20:28:23.726Z,15.88
2023-07-03T20:30:52.227Z,9.90
2023-07-03T20:33:19.887Z,5.88
2023-07-03T20:36:03.397Z,8.32
2023-07-03T20:38:31.205Z,10.35
2023-07-03T20:41:00.536Z,7.68
2023-07-03T20:43:27.933Z,12.05
2023-07-03T20:45:59.297Z,8.13
2023-07-03T20:48:26.574Z,12.82
2023-07-03T20:50:55.538Z,8.98
2023-07-03T20:53:40.462Z,7.60
2023-07-03T20:56:11.757Z,16.15
2023-07-03T20:58:39.679Z,12.50
2023-07-03T21:01:30.372Z,11.35
2023-07-03T21:03:59.898Z,9.00
2023-07-03T21:06:28.947Z,10.18
2023-07-03T21:11:24.119Z,8.55
2023-07-03T21:13:52.996Z,11.02
2023-07-03T21:16:22.181Z,5.88
2023-07-03T21:18:49.518Z,11.50
2023-07-03T21:21:17.940Z,8.50
2023-07-03T21:23:45.754Z,9.25
2023-07-03T21:26:14.208Z,7.18
2023-07-03T21:28:41.820Z,7.32
2023-07-03T21:31:12.138Z,5.35
2023-07-03T21:33:39.368Z,5.28
2023-07-03T21:36:08.327Z,9.13
2023-07-03T21:38:36.565Z,8.10
2023-07-03T21:41:03.901Z,7.13
2023-07-03T21:43:31.457Z,7.63
2023-07-03T21:46:05.721Z,6.20
2023-07-03T21:48:33.828Z,6.00
2023-07-03T21:51:01.289Z,6.45
2023-07-03T21:53:28.830Z,4.28
2023-07-03T21:56:05.147Z,7.45
2023-07-03T21:58:32.451Z,7.10
2023-07-03T22:00:59.604Z,4.68
2023-07-03T22:03:26.809Z,5.72
2023-07-03T22:05:55.460Z,6.10
2023-07-03T22:08:25.469Z,5.10
2023-07-03T22:10:53.585Z,5.13
2023-07-03T22:13:20.775Z,6.72
2023-07-03T22:15:47.980Z,5.13
2023-07-03T22:18:16.075Z,4.63
2023-07-03T22:20:43.825Z,7.20
2023-07-03T22:23:12.708Z,4.18
2023-07-03T22:25:39.831Z,6.78
2023-07-03T22:28:06.987Z,5.43
2023-07-03T22:30:34.145Z,6.85
2023-07-03T22:33:01.383Z,8.23
2023-07-03T22:35:28.591Z,5.05
2023-07-03T22:37:55.853Z,4.95
2023-07-03T22:40:23.109Z,6.13
2023-07-03T22:42:50.239Z,8.27
2023-07-03T22:45:17.569Z,7.28
2023-07-03T22:47:44.889Z,7.25
2023-07-03T22:50:13.025Z,5.30
2023-07-03T22:52:41.569Z,7.55
2023-07-03T22:55:10.727Z,10.88
2023-07-03T22:57:37.976Z,6.50
2023-07-03T23:00:11.199Z,6.75
2023-07-03T23:02:39.287Z,7.95
2023-07-03T23:05:07.484Z,5.47
2023-07-03T23:07:35.445Z,6.50
2023-07-03T23:10:07.244Z,9.85
2023-07-03T23:12:35.019Z,6.45
2023-07-03T23:15:02.460Z,8.98
2023-07-03T23:17:30.796Z,7.55
2023-07-03T23:19:58.035Z,6.28
2023-07-03T23:22:25.605Z,8.90
2023-07-03T23:24:55.991Z,6.18
2023-07-03T23:27:24.165Z,9.52
2023-07-03T23:29:52.609Z,8.02
2023-07-03T23:32:20.250Z,8.38
2023-07-03T23:34:48.550Z,9.18
2023-07-03T23:37:18.715Z,6.88
2023-07-03T23:39:45.863Z,9.27
2023-07-03T23:42:14.043Z,7.75
2023-07-03T23:44:41.445Z,7.38
2023-07-03T23:47:08.838Z,7.68
2023-07-03T23:49:36.666Z,6.63
2023-07-03T23:52:05.721Z,7.63
2023-07-03T23:54:33.054Z,6.15
2023-07-03T23:57:00.233Z,7.35
2023-07-03T23:59:28.132Z,6.10
